Time;durP1;ratioP1;P1;durP2;ratioP2;P2;SDS_P1;SDS_P2;PMS_P1;PMS_P2;Temp;Humidity;BMP_temperature;BMP_pressure;BME280_temperature;BME280_humidity;BME280_pressure;Samples;Min_cycle;Max_cycle;Signal;HPM_P1;HPM_P2
2023/06/14 00:00:14;;;;;;;11.63;6.60;;;19.50;57.70;;;;;;5104370;28;20480;-79
2023/06/14 00:02:43;;;;;;;9.40;6.80;;;19.40;57.80;;;;;;5107774;28;20627;-79
2023/06/14 00:05:13;;;;;;;12.27;6.90;;;19.40;57.90;;;;;;5089705;28;20471;-79
2023/06/14 00:07:43;;;;;;;9.20;6.40;;;19.40;58.00;;;;;;5105134;28;20459;-78
2023/06/14 00:10:12;;;;;;;10.70;7.23;;;19.40;58.00;;;;;;5108892;28;20448;-78
2023/06/14 00:12:40;;;;;;;11.27;7.70;;;19.30;58.10;;;;;;5096347;28;20562;-78
2023/06/14 00:15:10;;;;;;;10.93;6.93;;;19.30;58.10;;;;;;5107894;28;21004;-79
2023/06/14 00:17:38;;;;;;;12.27;6.83;;;19.30;58.20;;;;;;5102688;28;20849;-79
2023/06/14 00:20:07;;;;;;;15.70;7.20;;;19.20;58.40;;;;;;5106573;28;20460;-79
2023/06/14 00:22:37;;;;;;;11.37;7.00;;;19.20;58.50;;;;;;5108047;28;20483;-79
2023/06/14 00:25:06;;;;;;;11.10;7.40;;;19.20;58.50;;;;;;5103659;28;20504;-79
2023/06/14 00:27:46;;;;;;;9.20;6.63;;;19.20;58.60;;;;;;5089785;28;20454;-79
2023/06/14 00:30:17;;;;;;;9.27;6.40;;;19.10;58.60;;;;;;5091837;28;20454;-79
2023/06/14 00:32:45;;;;;;;9.50;6.73;;;19.10;58.70;;;;;;5085398;28;21061;-78
2023/06/14 00:35:14;;;;;;;14.40;7.43;;;19.10;58.80;;;;;;5102572;28;20465;-79
2023/06/14 00:37:42;;;;;;;12.03;7.13;;;19.10;58.80;;;;;;5090479;28;20497;-79
2023/06/14 00:40:11;;;;;;;10.10;7.17;;;19.10;58.90;;;;;;5093788;28;21168;-79
2023/06/14 00:42:39;;;;;;;10.70;7.17;;;19.00;58.90;;;;;;5086258;28;20475;-79
2023/06/14 00:45:08;;;;;;;9.90;6.93;;;19.00;58.80;;;;;;5079115;28;20466;-79
2023/06/14 00:47:39;;;;;;;11.73;7.00;;;18.90;58.90;;;;;;5100957;28;20507;-79
2023/06/14 00:50:09;;;;;;;9.33;6.73;;;18.90;59.00;;;;;;5089609;28;20455;-78
2023/06/14 00:52:37;;;;;;;11.33;7.30;;;18.90;59.10;;;;;;5101516;28;20448;-79
2023/06/14 00:55:06;;;;;;;11.47;7.27;;;18.90;59.10;;;;;;5105101;28;20470;-80
2023/06/14 00:57:37;;;;;;;9.73;7.33;;;18.80;59.10;;;;;;5099045;28;20456;-80
2023/06/14 01:00:09;;;;;;;10.70;6.97;;;18.70;59.10;;;;;;5107399;28;20831;-79
2023/06/14 01:02:41;;;;;;;11.00;7.90;;;18.60;59.20;;;;;;5090855;28;20470;-80
2023/06/14 01:05:10;;;;;;;12.60;7.20;;;18.60;59.40;;;;;;5086991;28;20545;-80
2023/06/14 01:08:02;;;;;;;11.13;7.20;;;18.60;59.40;;;;;;5107557;28;20473;-79
2023/06/14 01:10:39;;;;;;;11.20;7.57;;;18.60;59.50;;;;;;5103178;28;20451;-79
2023/06/14 01:13:13;;;;;;;10.73;6.90;;;18.50;59.50;;;;;;5102427;28;20455;-78
2023/06/14 01:15:44;;;;;;;10.90;6.90;;;18.50;59.60;;;;;;5092193;28;20545;-78
2023/06/14 01:18:17;;;;;;;9.33;7.00;;;18.50;59.60;;;;;;5090114;28;20506;-78
2023/06/14 01:20:49;;;;;;;10.00;7.27;;;18.50;59.60;;;;;;5102214;28;20480;-78
2023/06/14 01:23:20;;;;;;;11.07;6.97;;;18.50;59.60;;;;;;5096810;28;20887;-78
2023/06/14 01:25:52;;;;;;;10.03;6.43;;;18.40;59.60;;;;;;5106452;28;20451;-78
2023/06/14 01:28:22;;;;;;;10.50;7.13;;;18.40;59.60;;;;;;5108056;28;20499;-79
2023/06/14 01:30:53;;;;;;;9.40;6.60;;;18.40;59.70;;;;;;5103347;28;20473;-79
2023/06/14 01:33:22;;;;;;;12.07;7.70;;;18.30;59.80;;;;;;5086932;28;20490;-78
2023/06/14 01:35:52;;;;;;;10.50;6.97;;;18.30;59.90;;;;;;5106437;28;20446;-78
2023/06/14 01:38:25;;;;;;;10.40;7.33;;;18.30;60.00;;;;;;5095625;28;20493;-78
2023/06/14 01:40:56;;;;;;;12.20;6.87;;;18.20;60.00;;;;;;5108829;28;20817;-78
2023/06/14 01:43:26;;;;;;;11.70;6.33;;;18.20;60.10;;;;;;5089969;28;20536;-79
2023/06/14 01:45:55;;;;;;;9.50;7.13;;;18.20;60.10;;;;;;5090894;28;20469;-79
2023/06/14 01:48:24;;;;;;;11.63;7.60;;;18.10;60.10;;;;;;5083218;28;20544;-79
2023/06/14 01:50:53;;;;;;;13.27;7.30;;;18.10;60.20;;;;;;5101990;28;20482;-78
2023/06/14 01:53:22;;;;;;;9.53;6.87;;;18.10;60.30;;;;;;5089771;28;20447;-78
2023/06/14 01:55:54;;;;;;;10.87;7.30;;;18.10;60.40;;;;;;5108157;28;20477;-79
2023/06/14 01:58:22;;;;;;;11.20;6.47;;;18.00;60.30;;;;;;5092863;28;20869;-78
2023/06/14 02:00:51;;;;;;;9.53;6.63;;;18.00;60.40;;;;;;5091665;28;20470;-78
2023/06/14 02:03:19;;;;;;;11.90;7.73;;;18.00;60.40;;;;;;5084545;28;22106;-78
2023/06/14 02:05:47;;;;;;;11.60;7.00;;;17.90;60.50;;;;;;5084859;28;20492;-78
2023/06/14 02:08:15;;;;;;;10.30;7.30;;;17.90;60.50;;;;;;5104950;28;20456;-78
2023/06/14 02:10:46;;;;;;;10.93;7.20;;;17.90;60.50;;;;;;5085325;28;20457;-78
2023/06/14 02:13:14;;;;;;;11.33;7.67;;;17.90;60.60;;;;;;5100324;28;20450;-78
2023/06/14 02:15:43;;;;;;;11.57;7.57;;;17.90;60.60;;;;;;5088415;28;20457;-78
2023/06/14 02:18:12;;;;;;;10.97;7.27;;;17.80;60.60;;;;;;5099558;28;20452;-78
2023/06/14 02:20:41;;;;;;;9.30;7.43;;;17.80;60.70;;;;;;5103107;28;20443;-78
2023/06/14 02:23:08;;;;;;;10.90;7.47;;;17.80;60.70;;;;;;5104373;28;20898;-78
2023/06/14 02:25:36;;;;;;;12.07;6.60;;;17.80;60.70;;;;;;5089559;28;20542;-78
2023/06/14 02:28:09;;;;;;;13.30;6.80;;;17.80;60.70;;;;;;5086783;28;20461;-78
2023/06/14 02:30:40;;;;;;;10.67;7.03;;;17.80;60.80;;;;;;5099786;28;20457;-78
2023/06/14 02:33:12;;;;;;;10.73;6.23;;;17.80;60.70;;;;;;5092692;28;20445;-78
2023/06/14 02:35:41;;;;;;;12.70;7.60;;;17.70;60.70;;;;;;5110439;28;20446;-78
2023/06/14 02:38:09;;;;;;;11.00;7.33;;;17.70;60.80;;;;;;5110557;28;20460;-78
2023/06/14 02:40:37;;;;;;;11.80;7.23;;;17.70;60.80;;;;;;5103202;28;21118;-78
2023/06/14 02:43:05;;;;;;;10.77;7.10;;;17.70;60.80;;;;;;5092062;28;20472;-78
2023/06/14 02:45:34;;;;;;;10.23;6.80;;;17.70;60.90;;;;;;5091364;28;20455;-78
2023/06/14 02:48:03;;;;;;;12.03;7.23;;;17.70;60.90;;;;;;5093241;28;20448;-78
2023/06/14 02:50:31;;;;;;;11.50;7.90;;;17.70;60.90;;;;;;5105324;28;20881;-78
2023/06/14 02:52:59;;;;;;;9.23;7.07;;;17.70;60.80;;;;;;5085421;28;20943;-77
2023/06/14 02:55:27;;;;;;;12.17;7.60;;;17.60;60.90;;;;;;5108934;28;20535;-78
2023/06/14 02:57:55;;;;;;;12.47;7.80;;;17.60;61.00;;;;;;5110447;28;20570;-78
2023/06/14 03:00:24;;;;;;;13.80;8.00;;;17.60;61.00;;;;;;5091024;28;20489;-78
2023/06/14 03:02:54;;;;;;;13.10;7.17;;;17.50;61.10;;;;;;5090196;28;20557;-78
2023/06/14 03:05:24;;;;;;;12.10;7.43;;;17.50;61.10;;;;;;5087807;28;20505;-78
2023/06/14 03:07:53;;;;;;;11.30;7.43;;;17.50;61.00;;;;;;5084356;28;20453;-79
2023/06/14 03:10:22;;;;;;;13.50;7.30;;;17.40;61.10;;;;;;5092584;28;20911;-77
2023/06/14 03:12:51;;;;;;;10.70;7.17;;;17.40;61.10;;;;;;5083515;28;20572;-79
2023/06/14 03:15:23;;;;;;;11.30;6.67;;;17.40;61.20;;;;;;5091564;28;20466;-79
2023/06/14 03:17:54;;;;;;;14.17;7.77;;;17.40;61.20;;;;;;5090556;28;20449;-79
2023/06/14 03:20:23;;;;;;;12.80;7.03;;;17.40;61.20;;;;;;5108096;28;20492;-79
2023/06/14 03:22:54;;;;;;;9.77;7.00;;;17.40;61.20;;;;;;5092961;28;20471;-80
2023/06/14 03:25:22;;;;;;;12.00;6.50;;;17.50;61.20;;;;;;5089726;28;20506;-78
2023/06/14 03:27:52;;;;;;;13.30;6.90;;;17.50;61.20;;;;;;5093474;28;20458;-79
2023/06/14 03:30:20;;;;;;;13.13;7.93;;;17.50;61.20;;;;;;5095642;28;20499;-79
2023/06/14 03:32:51;;;;;;;11.30;7.70;;;17.50;61.20;;;;;;5111166;28;20446;-78
2023/06/14 03:35:22;;;;;;;11.50;7.10;;;17.40;61.20;;;;;;5087727;28;20453;-78
2023/06/14 03:37:50;;;;;;;10.00;7.20;;;17.40;61.20;;;;;;5082928;28;20540;-78
2023/06/14 03:40:19;;;;;;;11.50;7.23;;;17.40;61.20;;;;;;5084242;28;20456;-78
2023/06/14 03:42:50;;;;;;;13.93;7.07;;;17.40;61.30;;;;;;5089338;28;20502;-78
2023/06/14 03:45:19;;;;;;;10.70;7.53;;;17.40;61.30;;;;;;5088981;28;20466;-79
2023/06/14 03:47:48;;;;;;;9.17;6.30;;;17.30;61.30;;;;;;5106769;28;20501;-78
2023/06/14 03:50:16;;;;;;;10.93;7.40;;;17.30;61.30;;;;;;5093047;28;20502;-77
2023/06/14 03:52:48;;;;;;;10.73;6.80;;;17.30;61.30;;;;;;5103183;28;20461;-79
2023/06/14 03:55:17;;;;;;;13.33;7.57;;;17.30;61.50;;;;;;5092101;28;20505;-79
2023/06/14 03:57:48;;;;;;;11.70;7.47;;;17.30;61.60;;;;;;5102160;28;20443;-78
2023/06/14 04:00:19;;;;;;;13.70;6.80;;;17.40;61.50;;;;;;5084287;28;21006;-79
2023/06/14 04:02:47;;;;;;;17.17;6.90;;;17.40;61.60;;;;;;5110478;28;20447;-77
2023/06/14 04:05:16;;;;;;;14.60;8.10;;;17.50;61.60;;;;;;5089998;28;20446;-77
2023/06/14 04:07:55;;;;;;;15.10;8.57;;;17.50;61.60;;;;;;5090115;28;20527;-77
2023/06/14 04:10:23;;;;;;;9.73;7.30;;;17.60;61.60;;;;;;5088912;28;20516;-79
2023/06/14 04:12:51;;;;;;;10.97;6.80;;;17.60;61.60;;;;;;5089398;28;20454;-79
2023/06/14 04:15:20;;;;;;;11.57;7.97;;;17.60;61.50;;;;;;5087759;28;20512;-80
2023/06/14 04:17:57;;;;;;;10.90;7.20;;;17.70;61.60;;;;;;5084597;28;20460;-80
2023/06/14 04:20:26;;;;;;;9.60;6.60;;;17.80;61.60;;;;;;5087048;28;20460;-78
2023/06/14 04:22:58;;;;;;;13.13;6.70;;;17.90;61.60;;;;;;5107129;28;20488;-79
2023/06/14 04:25:30;;;;;;;16.97;8.40;;;18.00;61.60;;;;;;5093852;28;20463;-79
2023/06/14 04:27:58;;;;;;;9.93;6.90;;;18.10;61.50;;;;;;5072623;28;20486;-79
2023/06/14 04:30:31;;;;;;;11.87;6.60;;;18.20;61.50;;;;;;5103481;28;20552;-80
2023/06/14 04:32:59;;;;;;;11.63;7.40;;;18.30;61.50;;;;;;5098415;28;20462;-80
2023/06/14 04:35:28;;;;;;;16.30;6.97;;;18.50;61.50;;;;;;5085739;28;20454;-80
2023/06/14 04:37:59;;;;;;;11.57;7.20;;;18.60;61.30;;;;;;5103540;28;20466;-80
2023/06/14 04:40:28;;;;;;;18.67;7.40;;;18.80;61.30;;;;;;5105725;28;20965;-80
2023/06/14 04:42:57;;;;;;;10.00;6.17;;;18.90;61.20;;;;;;5089010;28;20950;-80
2023/06/14 04:45:32;;;;;;;10.37;7.00;;;19.10;61.10;;;;;;5092215;28;20463;-80
2023/06/14 04:48:01;;;;;;;11.93;6.90;;;19.10;60.90;;;;;;5087617;28;20456;-82
2023/06/14 04:50:29;;;;;;;11.93;6.73;;;19.20;60.80;;;;;;5088166;28;20455;-81
2023/06/14 04:53:00;;;;;;;12.70;6.83;;;19.30;60.70;;;;;;5102123;28;20475;-81
2023/06/14 04:55:29;;;;;;;11.57;6.60;;;19.30;60.40;;;;;;5092118;28;20452;-81
2023/06/14 04:57:57;;;;;;;14.67;7.40;;;19.20;60.50;;;;;;5090724;28;20452;-81
2023/06/14 05:00:28;;;;;;;13.33;7.80;;;19.20;60.40;;;;;;5085516;28;20953;-81
2023/06/14 05:02:57;;;;;;;10.07;6.57;;;19.20;60.40;;;;;;5082907;28;21156;-81
2023/06/14 05:05:30;;;;;;;11.10;7.23;;;19.10;60.40;;;;;;5091605;28;20483;-81
2023/06/14 05:08:00;;;;;;;15.67;7.50;;;19.10;60.40;;;;;;5105020;28;20968;-81
2023/06/14 05:10:34;;;;;;;13.23;7.37;;;19.10;60.50;;;;;;5092312;28;20456;-81
2023/06/14 05:13:03;;;;;;;9.40;6.90;;;19.30;60.60;;;;;;5103895;28;21234;-81
2023/06/14 05:15:31;;;;;;;13.17;6.73;;;19.40;60.30;;;;;;5087163;28;20444;-80
2023/06/14 05:18:01;;;;;;;9.57;6.57;;;19.40;60.10;;;;;;5085609;28;20693;-81
2023/06/14 05:20:32;;;;;;;11.20;6.60;;;19.50;60.00;;;;;;5087205;28;20501;-82
2023/06/14 05:23:01;;;;;;;10.90;7.30;;;19.50;60.00;;;;;;5092004;28;20501;-81
2023/06/14 05:25:31;;;;;;;13.43;6.50;;;19.60;60.00;;;;;;5108220;28;20472;-82
2023/06/14 05:27:59;;;;;;;12.27;7.43;;;19.70;59.90;;;;;;5087248;28;20799;-79
2023/06/14 05:30:36;;;;;;;12.40;5.90;;;19.80;59.90;;;;;;5101439;28;20965;-81
2023/06/14 05:33:04;;;;;;;10.80;7.27;;;19.90;60.00;;;;;;5105630;28;20808;-82
2023/06/14 05:35:32;;;;;;;18.17;6.80;;;20.10;59.90;;;;;;5107664;28;20455;-82
2023/06/14 05:38:02;;;;;;;10.80;6.97;;;20.30;59.80;;;;;;5095720;28;20884;-80
2023/06/14 05:40:40;;;;;;;10.60;6.83;;;20.70;59.50;;;;;;5099207;28;20452;-81
2023/06/14 05:43:08;;;;;;;12.00;7.17;;;21.30;58.50;;;;;;5086446;28;20858;-81
2023/06/14 05:45:36;;;;;;;9.60;6.03;;;22.10;57.40;;;;;;5101742;28;20493;-81
2023/06/14 05:48:04;;;;;;;14.90;6.90;;;22.70;56.00;;;;;;5101559;28;20471;-81
2023/06/14 05:50:32;;;;;;;10.27;6.30;;;23.40;55.60;;;;;;5087867;28;20452;-81
2023/06/14 05:53:02;;;;;;;11.40;6.90;;;24.20;54.60;;;;;;5095727;28;20939;-81
2023/06/14 05:55:30;;;;;;;10.53;6.67;;;24.90;54.10;;;;;;5110523;28;20459;-83
2023/06/14 05:57:57;;;;;;;10.93;6.57;;;25.50;53.30;;;;;;5098037;28;20809;-81
2023/06/14 06:00:26;;;;;;;9.07;6.20;;;26.10;52.60;;;;;;5090485;28;20547;-82
2023/06/14 06:02:57;;;;;;;15.23;7.00;;;26.40;51.30;;;;;;5093335;28;20539;-81
2023/06/14 06:05:28;;;;;;;12.63;6.40;;;26.50;50.80;;;;;;5090465;28;20464;-83
2023/06/14 06:07:56;;;;;;;11.90;6.43;;;26.70;50.20;;;;;;5082947;28;20468;-84
2023/06/14 06:10:25;;;;;;;14.37;6.60;;;26.60;49.80;;;;;;5104676;28;20461;-83
2023/06/14 06:12:54;;;;;;;11.93;6.23;;;26.30;50.00;;;;;;5082120;28;20531;-81
2023/06/14 06:15:22;;;;;;;10.10;6.07;;;25.70;49.90;;;;;;5091606;28;20458;-81
2023/06/14 06:18:11;;;;;;;13.07;6.70;;;25.10;50.40;;;;;;5090981;28;20501;-80
2023/06/14 06:20:39;;;;;;;12.53;6.50;;;24.50;50.70;;;;;;5093484;28;20465;-81
2023/06/14 06:23:07;;;;;;;9.57;6.03;;;23.90;51.30;;;;;;5089794;28;20467;-82
2023/06/14 06:25:37;;;;;;;11.50;6.43;;;23.60;52.10;;;;;;5103507;28;20464;-82
2023/06/14 06:28:05;;;;;;;12.00;6.60;;;23.30;52.50;;;;;;5090474;28;20792;-83
2023/06/14 06:30:33;;;;;;;8.40;5.60;;;23.00;52.60;;;;;;5102065;28;20890;-85
2023/06/14 06:33:01;;;;;;;12.67;6.23;;;22.60;52.90;;;;;;5078667;28;20819;-81
2023/06/14 06:35:30;;;;;;;11.43;5.93;;;22.30;53.60;;;;;;5086839;28;20485;-82
2023/06/14 06:37:58;;;;;;;12.10;7.03;;;22.00;54.00;;;;;;5107780;28;21232;-81
2023/06/14 06:40:29;;;;;;;9.80;6.10;;;21.90;54.40;;;;;;5103123;28;21015;-80
2023/06/14 06:42:58;;;;;;;9.63;6.23;;;21.80;54.50;;;;;;5082072;28;20455;-81
2023/06/14 06:45:27;;;;;;;9.30;5.97;;;21.60;54.70;;;;;;5085841;28;20562;-83
2023/06/14 06:47:56;;;;;;;17.43;7.13;;;21.50;55.00;;;;;;5091424;28;20443;-83
2023/06/14 06:50:24;;;;;;;10.30;5.30;;;21.40;55.30;;;;;;5103862;28;20465;-82
2023/06/14 06:52:53;;;;;;;14.03;6.50;;;21.40;55.50;;;;;;5077146;28;20448;-83
2023/06/14 06:55:21;;;;;;;11.93;6.20;;;21.30;55.80;;;;;;5104986;28;20459;-81
2023/06/14 06:57:52;;;;;;;11.40;6.70;;;21.20;55.90;;;;;;5096164;28;21112;-83
2023/06/14 07:00:22;;;;;;;9.03;5.50;;;21.10;56.00;;;;;;5106506;28;21014;-84
2023/06/14 07:02:50;;;;;;;14.43;6.63;;;21.00;56.10;;;;;;5113380;28;20523;-82
2023/06/14 07:05:19;;;;;;;13.77;6.83;;;21.00;56.20;;;;;;5092668;28;20521;-84
2023/06/14 07:07:47;;;;;;;9.43;6.47;;;21.00;56.40;;;;;;5089237;28;20447;-84
2023/06/14 07:10:15;;;;;;;14.20;6.27;;;21.00;56.50;;;;;;5091022;28;20499;-81
2023/06/14 07:12:43;;;;;;;10.87;5.93;;;21.00;56.50;;;;;;5109801;28;20458;-82
2023/06/14 07:15:11;;;;;;;12.70;6.40;;;20.90;56.60;;;;;;5109610;28;20871;-83
2023/06/14 07:17:41;;;;;;;11.43;6.70;;;20.90;56.60;;;;;;5108992;28;20448;-81
2023/06/14 07:20:11;;;;;;;11.87;5.93;;;20.80;56.80;;;;;;5091364;28;20505;-82
2023/06/14 07:22:41;;;;;;;13.27;7.27;;;20.80;56.90;;;;;;5091650;28;20959;-82
2023/06/14 07:25:12;;;;;;;10.90;6.20;;;20.80;57.10;;;;;;5112035;28;20460;-81
2023/06/14 07:27:41;;;;;;;13.53;6.50;;;20.80;57.20;;;;;;5086689;28;20452;-80
2023/06/14 07:30:10;;;;;;;9.90;6.77;;;20.80;57.30;;;;;;5082795;28;20544;-81
2023/06/14 07:32:38;;;;;;;9.87;5.73;;;20.80;57.30;;;;;;5095053;28;20448;-81
2023/06/14 07:35:08;;;;;;;11.50;6.73;;;20.80;57.40;;;;;;5111553;28;20440;-81
2023/06/14 07:37:36;;;;;;;13.30;7.43;;;20.80;57.50;;;;;;5089841;28;20502;-83
2023/06/14 07:40:06;;;;;;;16.33;6.90;;;20.80;57.50;;;;;;5111138;28;20458;-81
2023/06/14 07:42:35;;;;;;;12.43;6.70;;;20.80;57.60;;;;;;5092647;28;20447;-83
2023/06/14 07:45:04;;;;;;;13.53;6.40;;;20.80;57.50;;;;;;5104556;28;20852;-82
2023/06/14 07:47:33;;;;;;;13.73;7.40;;;20.80;57.40;;;;;;5102678;28;20477;-82
2023/06/14 07:50:01;;;;;;;10.50;6.83;;;20.80;57.30;;;;;;5094169;28;21358;-83
2023/06/14 07:52:30;;;;;;;11.13;6.33;;;20.80;57.20;;;;;;5097644;28;20523;-83
2023/06/14 07:54:58;;;;;;;9.60;6.50;;;20.90;57.20;;;;;;5089742;28;20941;-83
2023/06/14 07:57:27;;;;;;;15.80;6.20;;;20.90;57.30;;;;;;5089847;28;20451;-81
2023/06/14 07:59:55;;;;;;;11.80;7.30;;;21.00;57.30;;;;;;5088450;28;20456;-82
2023/06/14 08:02:23;;;;;;;10.53;6.30;;;21.10;57.20;;;;;;5085936;28;20897;-82
2023/06/14 08:04:51;;;;;;;10.50;6.37;;;21.20;57.10;;;;;;5090728;28;20452;-84
2023/06/14 08:07:19;;;;;;;13.53;6.40;;;21.20;56.80;;;;;;5089837;28;20477;-84
2023/06/14 08:09:48;;;;;;;12.00;6.47;;;21.20;56.70;;;;;;5106333;28;20463;-80
2023/06/14 08:12:16;;;;;;;12.40;6.60;;;21.30;56.70;;;;;;5090409;28;20486;-83
2023/06/14 08:14:44;;;;;;;10.50;5.73;;;21.20;56.80;;;;;;5107768;28;20450;-80
2023/06/14 08:17:12;;;;;;;11.43;6.53;;;21.20;56.80;;;;;;5102582;28;20445;-83
2023/06/14 08:19:40;;;;;;;11.13;5.87;;;21.30;56.90;;;;;;5104784;28;20544;-81
2023/06/14 08:22:12;;;;;;;11.23;6.27;;;21.40;56.80;;;;;;5108832;28;20793;-83
2023/06/14 08:24:40;;;;;;;12.37;6.97;;;21.40;56.70;;;;;;5088763;28;20476;-81
2023/06/14 08:27:09;;;;;;;13.63;5.83;;;21.40;56.50;;;;;;5095604;28;20491;-80
2023/06/14 08:29:39;;;;;;;11.83;6.70;;;21.40;56.30;;;;;;5088402;28;20539;-83
2023/06/14 08:32:08;;;;;;;13.20;6.77;;;21.30;56.30;;;;;;5085118;28;20484;-84
2023/06/14 08:34:36;;;;;;;11.27;6.40;;;21.40;56.30;;;;;;5081289;28;21140;-80
2023/06/14 08:37:05;;;;;;;8.90;5.60;;;21.30;56.30;;;;;;5081737;28;20983;-81
2023/06/14 08:39:33;;;;;;;10.43;6.13;;;21.40;56.30;;;;;;5106840;28;20458;-83
2023/06/14 08:42:03;;;;;;;12.50;6.30;;;21.40;56.40;;;;;;5095333;28;20452;-81
2023/06/14 08:44:33;;;;;;;12.03;6.30;;;21.50;56.20;;;;;;5077130;28;20456;-82
2023/06/14 08:47:03;;;;;;;10.50;6.23;;;21.50;56.10;;;;;;5072574;28;20475;-82
2023/06/14 08:49:33;;;;;;;9.57;6.20;;;21.50;56.10;;;;;;5100941;28;20921;-81
2023/06/14 08:52:02;;;;;;;12.00;6.83;;;21.60;55.90;;;;;;5093418;28;20436;-82
2023/06/14 08:54:31;;;;;;;9.43;6.13;;;21.70;55.80;;;;;;5090964;28;20445;-81
2023/06/14 08:56:59;;;;;;;12.67;6.70;;;21.60;55.90;;;;;;5093736;28;20523;-81
2023/06/14 08:59:28;;;;;;;10.10;7.30;;;21.70;55.90;;;;;;5104902;28;20460;-81
2023/06/14 09:01:57;;;;;;;12.67;6.20;;;21.80;55.80;;;;;;5105188;28;20468;-81
2023/06/14 09:04:39;;;;;;;10.40;6.00;;;21.90;55.60;;;;;;5096742;28;20471;-81
2023/06/14 09:07:07;;;;;;;9.53;6.50;;;21.90;55.60;;;;;;5103533;28;20572;-83
2023/06/14 09:09:40;;;;;;;10.30;6.13;;;21.90;55.50;;;;;;5095499;28;20941;-81
2023/06/14 09:12:14;;;;;;;12.60;6.97;;;22.00;55.50;;;;;;5106533;28;20950;-83
2023/06/14 09:14:42;;;;;;;11.37;5.70;;;22.10;55.40;;;;;;5090221;28;20448;-80
2023/06/14 09:17:14;;;;;;;12.07;6.43;;;22.10;55.30;;;;;;5082841;28;20448;-83
2023/06/14 09:19:42;;;;;;;12.70;6.33;;;22.20;55.20;;;;;;5088206;28;20970;-81
2023/06/14 09:22:12;;;;;;;16.83;7.20;;;22.20;55.20;;;;;;5106381;28;20452;-81
2023/06/14 09:24:42;;;;;;;10.67;6.33;;;22.20;55.10;;;;;;5086785;28;20462;-82
2023/06/14 09:27:16;;;;;;;12.00;7.40;;;22.20;55.30;;;;;;5090611;28;20502;-81
2023/06/14 09:29:44;;;;;;;11.30;7.20;;;22.30;55.10;;;;;;5100841;28;21007;-80
2023/06/14 09:32:14;;;;;;;9.83;6.30;;;22.30;55.00;;;;;;5091108;28;20463;-83
2023/06/14 09:34:42;;;;;;;9.50;6.60;;;22.30;54.90;;;;;;5086593;28;21004;-81
2023/06/14 09:37:10;;;;;;;10.57;6.90;;;22.40;54.80;;;;;;5089854;28;20487;-83
2023/06/14 09:39:50;;;;;;;9.50;6.87;;;22.40;54.70;;;;;;5093018;28;20452;-82
2023/06/14 09:42:19;;;;;;;11.27;6.30;;;22.50;54.60;;;;;;5089648;28;20551;-80
2023/06/14 09:44:49;;;;;;;11.03;6.30;;;22.50;54.80;;;;;;5091837;28;20441;-81
2023/06/14 09:47:18;;;;;;;10.37;5.90;;;22.60;54.70;;;;;;5104797;28;20571;-83
2023/06/14 09:49:46;;;;;;;15.00;6.57;;;22.60;54.50;;;;;;5107577;28;20454;-82
2023/06/14 09:52:17;;;;;;;11.27;5.87;;;22.70;54.30;;;;;;5102178;28;20475;-84
2023/06/14 09:54:47;;;;;;;11.00;6.17;;;22.70;54.10;;;;;;5091810;28;20515;-83
2023/06/14 09:57:17;;;;;;;9.00;6.17;;;22.70;54.10;;;;;;5112330;28;20448;-81
2023/06/14 09:59:47;;;;;;;12.60;6.50;;;22.70;54.10;;;;;;5105744;28;20458;-82
2023/06/14 10:02:23;;;;;;;11.80;6.70;;;22.70;54.10;;;;;;5090929;28;21019;-80
2023/06/14 10:05:00;;;;;;;10.63;5.43;;;22.70;53.90;;;;;;5079207;28;20503;-81
2023/06/14 10:07:32;;;;;;;12.40;5.50;;;22.70;54.00;;;;;;5091139;28;20534;-81
2023/06/14 10:10:01;;;;;;;8.77;5.40;;;22.80;53.80;;;;;;5103043;28;20490;-80
2023/06/14 10:12:29;;;;;;;8.57;5.07;;;22.90;53.60;;;;;;5107018;28;20452;-81
2023/06/14 10:14:58;;;;;;;7.47;5.40;;;23.00;53.50;;;;;;5081982;28;20976;-83
2023/06/14 10:17:38;;;;;;;11.20;5.33;;;23.10;53.20;;;;;;5101815;28;20453;-82
2023/06/14 10:20:21;;;;;;;12.27;5.10;;;23.10;52.60;;;;;;5097563;28;20516;-81
2023/06/14 10:22:52;;;;;;;9.50;5.80;;;23.20;52.60;;;;;;5086216;28;20542;-82
2023/06/14 10:25:30;;;;;;;10.63;5.20;;;23.10;52.60;;;;;;5085946;28;20847;-80
2023/06/14 10:28:17;;;;;;;8.40;5.30;;;23.10;52.40;;;;;;5094245;28;20468;-84
2023/06/14 10:31:07;;;;;;;8.70;4.73;;;23.00;52.50;;;;;;5079149;28;20461;-83
2023/06/14 10:33:40;;;;;;;10.80;5.90;;;22.90;52.50;;;;;;5095948;28;20454;-81
2023/06/14 10:36:27;;;;;;;10.60;5.27;;;22.90;52.60;;;;;;5103496;28;20508;-81
2023/06/14 10:38:59;;;;;;;11.83;5.77;;;22.90;52.80;;;;;;5103594;28;20459;-82
2023/06/14 10:41:28;;;;;;;14.53;5.40;;;23.00;52.50;;;;;;5111704;28;20460;-82
2023/06/14 10:44:43;;;;;;;12.47;5.70;;;23.00;52.20;;;;;;5090323;28;20452;-81
2023/06/14 10:47:22;;;;;;;11.37;5.60;;;23.10;52.10;;;;;;5110903;28;20486;-81
2023/06/14 10:49:53;;;;;;;15.63;5.83;;;23.20;52.10;;;;;;5091004;28;21314;-82
2023/06/14 10:52:24;;;;;;;14.03;4.63;;;23.20;51.90;;;;;;5104205;28;20563;-81
2023/06/14 10:55:11;;;;;;;10.17;5.30;;;23.10;51.90;;;;;;5084790;28;20461;-81
2023/06/14 10:57:41;;;;;;;9.33;5.13;;;23.10;51.70;;;;;;5102653;28;20938;-81
2023/06/14 11:00:22;;;;;;;9.70;5.20;;;23.10;51.70;;;;;;5087584;28;20455;-81
2023/06/14 11:03:38;;;;;;;7.37;4.67;;;23.10;51.70;;;;;;5084341;28;20448;-82
2023/06/14 11:06:14;;;;;;;8.43;4.90;;;23.10;51.60;;;;;;5096599;28;20467;-84
2023/06/14 11:09:10;;;;;;;10.37;5.30;;;22.90;51.60;;;;;;5092567;28;20464;-80
2023/06/14 11:11:42;;;;;;;10.87;5.23;;;23.00;51.60;;;;;;5095603;28;20458;-83
2023/06/14 11:14:11;;;;;;;8.40;5.00;;;23.00;51.80;;;;;;5088249;28;20459;-83
2023/06/14 11:16:39;;;;;;;11.70;4.80;;;23.10;51.90;;;;;;5108161;28;20465;-82
2023/06/14 11:19:07;;;;;;;8.80;5.57;;;23.10;51.70;;;;;;5102448;28;20448;-80
2023/06/14 11:21:41;;;;;;;9.73;4.27;;;23.20;51.60;;;;;;5102530;28;20443;-81
2023/06/14 11:24:14;;;;;;;9.57;5.10;;;23.20;51.50;;;;;;5083649;28;20455;-81
2023/06/14 11:26:43;;;;;;;12.97;5.10;;;23.20;51.20;;;;;;5105404;28;20452;-80
2023/06/14 11:29:11;;;;;;;11.23;5.23;;;23.20;51.30;;;;;;5102166;28;20474;-83
2023/06/14 11:31:43;;;;;;;10.07;4.30;;;23.20;51.30;;;;;;5090061;28;20536;-83
2023/06/14 11:34:13;;;;;;;10.07;4.27;;;23.30;51.40;;;;;;5104134;28;20456;-82
2023/06/14 11:36:43;;;;;;;8.33;4.60;;;23.40;51.30;;;;;;5112263;28;20451;-83
2023/06/14 11:39:11;;;;;;;8.40;5.20;;;23.50;50.90;;;;;;5108115;28;20859;-81
2023/06/14 11:41:40;;;;;;;8.90;4.40;;;23.60;50.90;;;;;;5095121;28;20456;-82
2023/06/14 11:44:09;;;;;;;12.37;5.20;;;23.60;50.70;;;;;;5077592;28;20519;-81
2023/06/14 11:46:37;;;;;;;10.20;4.90;;;23.70;50.70;;;;;;5098486;28;20540;-84
2023/06/14 11:49:06;;;;;;;10.43;4.67;;;23.70;50.50;;;;;;5090181;28;20510;-80
2023/06/14 11:51:36;;;;;;;9.83;4.60;;;23.70;50.30;;;;;;5081234;28;21005;-82
2023/06/14 11:54:07;;;;;;;12.80;4.67;;;23.70;50.40;;;;;;5104933;28;20873;-84
2023/06/14 11:56:37;;;;;;;6.70;4.50;;;23.80;50.20;;;;;;5092130;28;21147;-82
2023/06/14 11:59:06;;;;;;;7.93;4.00;;;23.80;50.10;;;;;;5089015;28;21024;-82
2023/06/14 12:01:39;;;;;;;8.60;4.30;;;23.80;49.90;;;;;;5109055;28;20472;-84
2023/06/14 12:04:07;;;;;;;8.97;4.50;;;23.80;49.70;;;;;;5094111;28;20480;-82
2023/06/14 12:06:39;;;;;;;9.10;5.00;;;23.80;49.80;;;;;;5107724;28;20519;-82
2023/06/14 12:09:13;;;;;;;7.90;4.67;;;23.80;49.80;;;;;;5097437;28;20494;-83
2023/06/14 12:11:42;;;;;;;8.97;4.60;;;23.80;49.70;;;;;;5091240;28;21191;-81
2023/06/14 12:14:11;;;;;;;7.90;4.00;;;23.80;49.60;;;;;;5109865;28;21006;-83
2023/06/14 12:16:41;;;;;;;11.00;4.60;;;23.80;49.60;;;;;;5089580;28;20479;-83
2023/06/14 12:19:12;;;;;;;9.17;3.90;;;23.90;49.60;;;;;;5092330;28;20547;-83
2023/06/14 12:21:41;;;;;;;8.93;4.43;;;24.00;49.40;;;;;;5099362;28;20459;-82
2023/06/14 12:24:12;;;;;;;8.03;4.70;;;24.00;49.30;;;;;;5104608;28;21065;-83
2023/06/14 12:26:42;;;;;;;7.60;4.20;;;24.10;49.30;;;;;;5094956;28;20467;-82
2023/06/14 12:29:12;;;;;;;7.60;4.40;;;24.10;49.10;;;;;;5091340;28;20468;-82
2023/06/14 12:31:41;;;;;;;10.83;4.50;;;24.10;49.00;;;;;;5107601;28;20472;-82
2023/06/14 12:34:09;;;;;;;10.20;3.90;;;24.20;48.90;;;;;;5094638;28;20501;-82
2023/06/14 12:36:41;;;;;;;8.20;4.03;;;24.10;48.70;;;;;;5109995;28;20462;-81
2023/06/14 12:39:11;;;;;;;7.47;3.50;;;24.10;48.80;;;;;;5110314;28;20829;-80
2023/06/14 12:41:41;;;;;;;7.70;4.37;;;24.10;48.80;;;;;;5088848;28;20972;-84
2023/06/14 12:44:09;;;;;;;7.50;4.00;;;24.10;48.80;;;;;;5108569;28;20493;-82
2023/06/14 12:46:39;;;;;;;7.70;4.30;;;24.20;48.60;;;;;;5093951;28;20544;-81
2023/06/14 12:49:09;;;;;;;6.60;3.57;;;24.20;48.40;;;;;;5101420;28;20471;-81
2023/06/14 12:51:37;;;;;;;9.53;4.00;;;24.30;48.20;;;;;;5092627;28;20448;-83
2023/06/14 12:54:05;;;;;;;7.97;4.20;;;24.30;48.30;;;;;;5087102;28;20470;-83
2023/06/14 12:56:35;;;;;;;8.67;4.27;;;24.30;48.20;;;;;;5083304;28;20546;-80